Midland, MI (48642)

4:32 AM EST on December 05, 2016 (GMT -0500)
Mills, North Midland County | | Change Station

Elev 682 ft 43.81 °N, 84.23 °W | Updated 2 minutes ago

Overcast
Overcast
31.6 °F
Feels Like 32 °F
N
0.0
Wind Variable Wind from ESE
Gusts 0.0 mph

Today
High -- | Low -- °F
--% Chance of Precip.
Yesterday
High -- | Low -- °F
Precip. -- in
Pressure 29.84 in
Visibility 4.0 miles
Clouds Mostly Cloudy 600 ft
Mostly Cloudy 1700 ft
Overcast 2200 ft
Windchill 32 °F
Dew Point 31 °F
Humidity 97%
Rainfall 0.00 in
Snow Depth Not available.
7:55 AM 4:59 PM
Waxing Crescent, 30% visible
METAR KIKW 050913Z AUTO 24004KT 4SM BR BKN006 BKN017 OVC022 01/00 A2984 RMK AO2 T00050000
Pressure 29.84 in
Visibility 4.0 miles
Clouds Mostly Cloudy 600 ft
Mostly Cloudy 1700 ft
Overcast 2200 ft
Windchill 32 °F
Dew Point 31 °F
Humidity 97%
Rainfall 0.00 in
Snow Depth Not available.
7:55 AM 4:59 PM
Waxing Crescent, 30% visible
METAR KIKW 050913Z AUTO 24004KT 4SM BR BKN006 BKN017 OVC022 01/00 A2984 RMK AO2 T00050000

10-Day Weather Forecast

Almanac

Astronomy

Dec. 05, 2016 Rise Set
Actual Time
Civil Twilight
Nautical Twilight
Astronomical Twilight
Moon
Length of Visible Light
Length of Day
Tomorrow will be .
, % of the Moon is Illuminated

Today's Extremes

State Highs State Lows

Community

WunderPhotos

Upload Photos

1,955,775 photos uploaded!

WunderBlog® & News

Nearby

Air Quality

  Air Quality AQ Index Pollutant
Not available.

Snow Depth

Station Depth Elevation

Earthquake Activity

City Distance Mag. Time & Date
Minimum magnitude displayed is 2.5.

Coastal Water Temperatures

Place Temperature

Stations

Nearby Weather Stations

Station Location Temp. Windchill Dew Point Humidity Wind Precip. Elev Updated Type
                   

Watches & Warnings

There are currently no watches in effect.